sensor_id;sensor_type;location;lat;lon;timestamp;P1;durP1;ratioP1;P2;durP2;ratioP2
71502;SDS011;59322;51.382;7.372;2023-10-13T00:01:51;160.32;;;150.18;;
71502;SDS011;59322;51.382;7.372;2023-10-13T00:04:17;159.45;;;149.07;;
71502;SDS011;59322;51.382;7.372;2023-10-13T00:06:43;158.15;;;147.98;;
71502;SDS011;59322;51.382;7.372;2023-10-13T00:09:08;154.30;;;144.65;;
71502;SDS011;59322;51.382;7.372;2023-10-13T00:11:34;154.88;;;144.95;;
71502;SDS011;59322;51.382;7.372;2023-10-13T00:14:00;145.13;;;135.68;;
71502;SDS011;59322;51.382;7.372;2023-10-13T00:16:26;149.90;;;140.63;;
71502;SDS011;59322;51.382;7.372;2023-10-13T00:18:52;144.38;;;135.35;;
71502;SDS011;59322;51.382;7.372;2023-10-13T00:21:18;143.40;;;134.27;;
71502;SDS011;59322;51.382;7.372;2023-10-13T00:23:44;134.68;;;125.57;;
71502;SDS011;59322;51.382;7.372;2023-10-13T00:26:10;124.45;;;116.75;;
71502;SDS011;59322;51.382;7.372;2023-10-13T00:28:36;121.20;;;113.47;;
71502;SDS011;59322;51.382;7.372;2023-10-13T00:31:02;96.60;;;89.55;;
71502;SDS011;59322;51.382;7.372;2023-10-13T00:33:28;93.28;;;87.20;;
71502;SDS011;59322;51.382;7.372;2023-10-13T00:35:54;94.25;;;88.10;;
71502;SDS011;59322;51.382;7.372;2023-10-13T00:38:20;98.68;;;92.30;;
71502;SDS011;59322;51.382;7.372;2023-10-13T00:40:46;95.22;;;88.97;;
71502;SDS011;59322;51.382;7.372;2023-10-13T00:43:12;100.07;;;93.47;;
71502;SDS011;59322;51.382;7.372;2023-10-13T00:45:38;89.13;;;83.22;;
71502;SDS011;59322;51.382;7.372;2023-10-13T00:48:04;95.75;;;89.43;;
71502;SDS011;59322;51.382;7.372;2023-10-13T00:50:30;95.03;;;88.78;;
71502;SDS011;59322;51.382;7.372;2023-10-13T00:52:56;87.55;;;81.47;;
71502;SDS011;59322;51.382;7.372;2023-10-13T00:55:21;89.63;;;83.53;;
71502;SDS011;59322;51.382;7.372;2023-10-13T00:57:51;82.15;;;76.70;;
71502;SDS011;59322;51.382;7.372;2023-10-13T01:00:17;89.25;;;83.07;;
71502;SDS011;59322;51.382;7.372;2023-10-13T01:02:43;86.05;;;80.22;;
71502;SDS011;59322;51.382;7.372;2023-10-13T01:05:08;90.30;;;84.25;;
71502;SDS011;59322;51.382;7.372;2023-10-13T01:07:37;89.32;;;83.30;;
71502;SDS011;59322;51.382;7.372;2023-10-13T01:10:03;89.53;;;83.80;;
71502;SDS011;59322;51.382;7.372;2023-10-13T01:12:30;85.35;;;79.82;;
71502;SDS011;59322;51.382;7.372;2023-10-13T01:14:56;84.75;;;79.07;;
71502;SDS011;59322;51.382;7.372;2023-10-13T01:17:22;88.10;;;82.25;;
71502;SDS011;59322;51.382;7.372;2023-10-13T01:19:48;82.90;;;77.30;;
71502;SDS011;59322;51.382;7.372;2023-10-13T01:22:14;81.05;;;75.80;;
71502;SDS011;59322;51.382;7.372;2023-10-13T01:24:40;76.50;;;71.30;;
71502;SDS011;59322;51.382;7.372;2023-10-13T01:27:06;80.63;;;75.50;;
71502;SDS011;59322;51.382;7.372;2023-10-13T01:29:32;81.65;;;76.05;;
71502;SDS011;59322;51.382;7.372;2023-10-13T01:31:58;81.35;;;75.93;;
71502;SDS011;59322;51.382;7.372;2023-10-13T01:34:24;82.07;;;76.47;;
71502;SDS011;59322;51.382;7.372;2023-10-13T01:36:51;80.10;;;74.95;;
71502;SDS011;59322;51.382;7.372;2023-10-13T01:39:18;79.55;;;74.15;;
71502;SDS011;59322;51.382;7.372;2023-10-13T01:41:44;84.47;;;79.00;;
71502;SDS011;59322;51.382;7.372;2023-10-13T01:44:10;78.03;;;72.93;;
71502;SDS011;59322;51.382;7.372;2023-10-13T01:46:36;87.03;;;81.13;;
71502;SDS011;59322;51.382;7.372;2023-10-13T01:49:02;88.75;;;82.88;;
71502;SDS011;59322;51.382;7.372;2023-10-13T01:51:27;79.80;;;74.25;;
71502;SDS011;59322;51.382;7.372;2023-10-13T01:53:54;81.10;;;75.43;;
71502;SDS011;59322;51.382;7.372;2023-10-13T01:56:20;79.55;;;74.03;;
71502;SDS011;59322;51.382;7.372;2023-10-13T01:58:46;80.13;;;74.55;;
71502;SDS011;59322;51.382;7.372;2023-10-13T02:01:11;82.93;;;77.53;;
71502;SDS011;59322;51.382;7.372;2023-10-13T02:03:37;80.28;;;74.78;;
71502;SDS011;59322;51.382;7.372;2023-10-13T02:06:03;76.68;;;71.38;;
71502;SDS011;59322;51.382;7.372;2023-10-13T02:08:29;82.55;;;76.70;;
71502;SDS011;59322;51.382;7.372;2023-10-13T02:10:56;81.45;;;76.20;;
71502;SDS011;59322;51.382;7.372;2023-10-13T02:13:23;79.80;;;74.35;;
71502;SDS011;59322;51.382;7.372;2023-10-13T02:15:52;80.05;;;74.93;;
71502;SDS011;59322;51.382;7.372;2023-10-13T02:18:18;84.07;;;78.40;;
71502;SDS011;59322;51.382;7.372;2023-10-13T02:20:45;83.00;;;77.47;;
71502;SDS011;59322;51.382;7.372;2023-10-13T02:23:11;75.78;;;70.57;;
71502;SDS011;59322;51.382;7.372;2023-10-13T02:25:37;84.90;;;79.18;;
71502;SDS011;59322;51.382;7.372;2023-10-13T02:28:03;82.13;;;76.85;;
71502;SDS011;59322;51.382;7.372;2023-10-13T02:30:29;82.32;;;77.03;;
71502;SDS011;59322;51.382;7.372;2023-10-13T02:32:54;82.90;;;77.10;;
71502;SDS011;59322;51.382;7.372;2023-10-13T02:35:21;81.00;;;75.90;;
71502;SDS011;59322;51.382;7.372;2023-10-13T02:37:46;86.88;;;81.25;;
71502;SDS011;59322;51.382;7.372;2023-10-13T02:40:12;83.75;;;78.28;;
71502;SDS011;59322;51.382;7.372;2023-10-13T02:42:38;79.28;;;74.07;;
71502;SDS011;59322;51.382;7.372;2023-10-13T02:45:04;79.15;;;74.07;;
71502;SDS011;59322;51.382;7.372;2023-10-13T02:47:30;76.97;;;71.57;;
71502;SDS011;59322;51.382;7.372;2023-10-13T02:49:57;76.35;;;71.10;;
71502;SDS011;59322;51.382;7.372;2023-10-13T02:52:23;81.93;;;76.53;;
71502;SDS011;59322;51.382;7.372;2023-10-13T02:54:48;77.85;;;72.82;;
71502;SDS011;59322;51.382;7.372;2023-10-13T02:57:14;81.18;;;75.63;;
71502;SDS011;59322;51.382;7.372;2023-10-13T02:59:41;80.55;;;75.38;;
71502;SDS011;59322;51.382;7.372;2023-10-13T03:02:07;83.47;;;77.78;;
71502;SDS011;59322;51.382;7.372;2023-10-13T03:04:33;82.20;;;76.82;;
71502;SDS011;59322;51.382;7.372;2023-10-13T03:06:59;87.20;;;81.50;;
71502;SDS011;59322;51.382;7.372;2023-10-13T03:09:25;81.93;;;76.72;;
71502;SDS011;59322;51.382;7.372;2023-10-13T03:11:51;77.90;;;72.80;;
71502;SDS011;59322;51.382;7.372;2023-10-13T03:16:42;85.45;;;79.68;;
71502;SDS011;59322;51.382;7.372;2023-10-13T03:19:08;84.57;;;78.90;;
71502;SDS011;59322;51.382;7.372;2023-10-13T03:21:34;97.45;;;91.00;;
71502;SDS011;59322;51.382;7.372;2023-10-13T03:24:00;99.88;;;93.57;;
71502;SDS011;59322;51.382;7.372;2023-10-13T03:26:26;117.68;;;110.30;;
71502;SDS011;59322;51.382;7.372;2023-10-13T03:28:52;129.13;;;121.18;;
71502;SDS011;59322;51.382;7.372;2023-10-13T03:31:19;122.22;;;114.30;;
71502;SDS011;59322;51.382;7.372;2023-10-13T03:33:44;118.07;;;110.97;;
71502;SDS011;59322;51.382;7.372;2023-10-13T03:36:10;126.00;;;118.18;;
71502;SDS011;59322;51.382;7.372;2023-10-13T03:38:36;123.97;;;116.38;;
71502;SDS011;59322;51.382;7.372;2023-10-13T03:41:02;130.45;;;122.38;;
71502;SDS011;59322;51.382;7.372;2023-10-13T03:43:28;132.25;;;124.38;;
71502;SDS011;59322;51.382;7.372;2023-10-13T03:45:54;141.48;;;132.88;;
71502;SDS011;59322;51.382;7.372;2023-10-13T03:48:20;142.13;;;133.48;;
71502;SDS011;59322;51.382;7.372;2023-10-13T03:50:46;144.30;;;135.63;;
71502;SDS011;59322;51.382;7.372;2023-10-13T03:53:12;149.63;;;140.77;;
71502;SDS011;59322;51.382;7.372;2023-10-13T03:55:38;152.52;;;143.32;;
71502;SDS011;59322;51.382;7.372;2023-10-13T03:58:04;155.65;;;146.32;;
71502;SDS011;59322;51.382;7.372;2023-10-13T04:00:30;154.98;;;145.60;;
71502;SDS011;59322;51.382;7.372;2023-10-13T04:02:56;160.90;;;151.07;;
71502;SDS011;59322;51.382;7.372;2023-10-13T04:05:22;149.43;;;140.05;;
71502;SDS011;59322;51.382;7.372;2023-10-13T04:07:48;142.82;;;134.00;;
71502;SDS011;59322;51.382;7.372;2023-10-13T04:10:14;150.32;;;140.98;;
71502;SDS011;59322;51.382;7.372;2023-10-13T04:12:40;151.57;;;142.18;;
71502;SDS011;59322;51.382;7.372;2023-10-13T04:15:06;143.20;;;134.32;;
71502;SDS011;59322;51.382;7.372;2023-10-13T04:17:32;152.40;;;142.77;;
71502;SDS011;59322;51.382;7.372;2023-10-13T04:19:58;152.55;;;142.93;;
71502;SDS011;59322;51.382;7.372;2023-10-13T04:22:24;157.48;;;147.68;;
71502;SDS011;59322;51.382;7.372;2023-10-13T04:24:50;177.10;;;166.63;;
71502;SDS011;59322;51.382;7.372;2023-10-13T04:27:16;159.25;;;149.20;;
71502;SDS011;59322;51.382;7.372;2023-10-13T04:29:42;158.32;;;148.27;;
71502;SDS011;59322;51.382;7.372;2023-10-13T04:32:08;156.20;;;146.88;;
71502;SDS011;59322;51.382;7.372;2023-10-13T04:34:33;132.40;;;124.20;;
71502;SDS011;59322;51.382;7.372;2023-10-13T04:36:59;145.20;;;136.40;;
71502;SDS011;59322;51.382;7.372;2023-10-13T04:39:25;149.13;;;139.40;;
71502;SDS011;59322;51.382;7.372;2023-10-13T04:41:51;154.13;;;144.63;;
71502;SDS011;59322;51.382;7.372;2023-10-13T04:44:17;151.57;;;142.30;;
71502;SDS011;59322;51.382;7.372;2023-10-13T04:46:43;155.18;;;145.88;;
71502;SDS011;59322;51.382;7.372;2023-10-13T04:49:09;147.15;;;137.93;;
71502;SDS011;59322;51.382;7.372;2023-10-13T04:51:36;145.38;;;136.15;;
71502;SDS011;59322;51.382;7.372;2023-10-13T04:54:02;129.40;;;121.40;;
71502;SDS011;59322;51.382;7.372;2023-10-13T04:56:28;130.82;;;122.47;;
71502;SDS011;59322;51.382;7.372;2023-10-13T04:58:54;132.27;;;123.72;;
71502;SDS011;59322;51.382;7.372;2023-10-13T05:01:19;138.75;;;129.70;;
71502;SDS011;59322;51.382;7.372;2023-10-13T05:03:45;130.27;;;122.20;;
71502;SDS011;59322;51.382;7.372;2023-10-13T05:06:11;131.73;;;123.53;;
71502;SDS011;59322;51.382;7.372;2023-10-13T05:08:37;138.25;;;129.57;;
71502;SDS011;59322;51.382;7.372;2023-10-13T05:11:04;143.77;;;134.73;;
71502;SDS011;59322;51.382;7.372;2023-10-13T05:13:30;153.52;;;144.05;;
71502;SDS011;59322;51.382;7.372;2023-10-13T05:15:56;153.90;;;144.52;;
71502;SDS011;59322;51.382;7.372;2023-10-13T05:18:22;157.63;;;148.07;;
71502;SDS011;59322;51.382;7.372;2023-10-13T05:20:48;165.13;;;154.90;;
71502;SDS011;59322;51.382;7.372;2023-10-13T05:23:14;171.52;;;160.63;;
71502;SDS011;59322;51.382;7.372;2023-10-13T05:25:40;168.93;;;158.70;;
71502;SDS011;59322;51.382;7.372;2023-10-13T05:28:06;167.75;;;157.52;;
71502;SDS011;59322;51.382;7.372;2023-10-13T05:30:31;159.13;;;149.38;;
71502;SDS011;59322;51.382;7.372;2023-10-13T05:32:57;160.38;;;150.30;;
71502;SDS011;59322;51.382;7.372;2023-10-13T05:35:23;169.02;;;158.60;;
71502;SDS011;59322;51.382;7.372;2023-10-13T05:37:49;157.40;;;147.75;;
71502;SDS011;59322;51.382;7.372;2023-10-13T05:40:16;151.23;;;141.80;;
71502;SDS011;59322;51.382;7.372;2023-10-13T05:42:42;144.07;;;135.38;;
71502;SDS011;59322;51.382;7.372;2023-10-13T05:45:08;140.98;;;132.18;;
71502;SDS011;59322;51.382;7.372;2023-10-13T05:47:34;144.38;;;135.38;;
71502;SDS011;59322;51.382;7.372;2023-10-13T05:50:00;150.95;;;141.70;;
71502;SDS011;59322;51.382;7.372;2023-10-13T05:52:26;158.88;;;149.30;;
71502;SDS011;59322;51.382;7.372;2023-10-13T05:54:52;154.00;;;144.25;;
71502;SDS011;59322;51.382;7.372;2023-10-13T05:57:18;152.00;;;142.30;;
71502;SDS011;59322;51.382;7.372;2023-10-13T05:59:44;134.68;;;126.38;;
71502;SDS011;59322;51.382;7.372;2023-10-13T06:02:09;119.20;;;111.78;;
71502;SDS011;59322;51.382;7.372;2023-10-13T06:04:35;115.82;;;108.43;;
71502;SDS011;59322;51.382;7.372;2023-10-13T06:07:01;116.45;;;108.97;;
71502;SDS011;59322;51.382;7.372;2023-10-13T06:09:27;109.28;;;102.30;;
71502;SDS011;59322;51.382;7.372;2023-10-13T06:11:53;115.20;;;108.00;;
71502;SDS011;59322;51.382;7.372;2023-10-13T06:14:19;113.18;;;106.25;;
71502;SDS011;59322;51.382;7.372;2023-10-13T06:16:45;106.50;;;99.85;;
71502;SDS011;59322;51.382;7.372;2023-10-13T06:19:11;97.78;;;91.45;;
71502;SDS011;59322;51.382;7.372;2023-10-13T06:21:37;99.93;;;93.60;;
71502;SDS011;59322;51.382;7.372;2023-10-13T06:24:03;102.97;;;96.30;;
71502;SDS011;59322;51.382;7.372;2023-10-13T06:26:29;98.57;;;92.15;;
71502;SDS011;59322;51.382;7.372;2023-10-13T06:28:55;102.55;;;96.20;;
71502;SDS011;59322;51.382;7.372;2023-10-13T06:31:21;100.80;;;94.50;;
71502;SDS011;59322;51.382;7.372;2023-10-13T06:33:47;102.80;;;96.22;;
71502;SDS011;59322;51.382;7.372;2023-10-13T06:36:13;103.40;;;96.38;;
71502;SDS011;59322;51.382;7.372;2023-10-13T06:38:39;103.47;;;97.03;;
71502;SDS011;59322;51.382;7.372;2023-10-13T06:41:05;109.47;;;102.70;;
71502;SDS011;59322;51.382;7.372;2023-10-13T06:43:34;104.20;;;97.70;;
71502;SDS011;59322;51.382;7.372;2023-10-13T06:46:00;106.07;;;99.13;;
71502;SDS011;59322;51.382;7.372;2023-10-13T06:48:26;102.75;;;96.18;;
71502;SDS011;59322;51.382;7.372;2023-10-13T06:50:52;106.10;;;99.68;;
71502;SDS011;59322;51.382;7.372;2023-10-13T06:53:19;103.55;;;96.90;;
71502;SDS011;59322;51.382;7.372;2023-10-13T06:55:45;112.45;;;105.38;;
71502;SDS011;59322;51.382;7.372;2023-10-13T06:58:11;115.60;;;108.20;;
71502;SDS011;59322;51.382;7.372;2023-10-13T07:00:37;119.07;;;111.72;;
71502;SDS011;59322;51.382;7.372;2023-10-13T07:03:03;122.25;;;114.93;;
71502;SDS011;59322;51.382;7.372;2023-10-13T07:05:29;124.95;;;117.38;;
71502;SDS011;59322;51.382;7.372;2023-10-13T07:07:54;113.93;;;106.85;;
71502;SDS011;59322;51.382;7.372;2023-10-13T07:10:20;107.28;;;100.45;;
71502;SDS011;59322;51.382;7.372;2023-10-13T07:12:46;103.20;;;96.78;;
71502;SDS011;59322;51.382;7.372;2023-10-13T07:15:12;107.18;;;99.82;;
71502;SDS011;59322;51.382;7.372;2023-10-13T07:17:38;107.63;;;100.45;;
71502;SDS011;59322;51.382;7.372;2023-10-13T07:20:04;107.85;;;100.35;;
71502;SDS011;59322;51.382;7.372;2023-10-13T07:22:30;97.63;;;91.18;;
71502;SDS011;59322;51.382;7.372;2023-10-13T07:24:56;104.10;;;96.75;;
71502;SDS011;59322;51.382;7.372;2023-10-13T07:27:22;108.07;;;101.07;;
71502;SDS011;59322;51.382;7.372;2023-10-13T07:29:49;107.93;;;100.63;;
71502;SDS011;59322;51.382;7.372;2023-10-13T07:32:14;115.53;;;107.90;;
71502;SDS011;59322;51.382;7.372;2023-10-13T07:34:40;94.53;;;87.93;;
71502;SDS011;59322;51.382;7.372;2023-10-13T07:37:06;86.05;;;79.50;;
71502;SDS011;59322;51.382;7.372;2023-10-13T07:39:32;111.65;;;104.55;;
71502;SDS011;59322;51.382;7.372;2023-10-13T07:41:58;96.35;;;89.72;;
71502;SDS011;59322;51.382;7.372;2023-10-13T07:44:24;90.03;;;84.05;;
71502;SDS011;59322;51.382;7.372;2023-10-13T07:46:51;104.03;;;97.10;;
71502;SDS011;59322;51.382;7.372;2023-10-13T07:49:17;97.78;;;90.88;;
71502;SDS011;59322;51.382;7.372;2023-10-13T07:51:42;89.38;;;83.13;;
71502;SDS011;59322;51.382;7.372;2023-10-13T07:54:08;75.10;;;69.30;;
71502;SDS011;59322;51.382;7.372;2023-10-13T07:56:34;92.05;;;85.30;;
71502;SDS011;59322;51.382;7.372;2023-10-13T07:59:00;120.95;;;113.00;;
71502;SDS011;59322;51.382;7.372;2023-10-13T08:01:26;103.10;;;95.80;;
71502;SDS011;59322;51.382;7.372;2023-10-13T08:03:52;106.13;;;99.25;;
71502;SDS011;59322;51.382;7.372;2023-10-13T08:06:18;104.07;;;97.45;;
71502;SDS011;59322;51.382;7.372;2023-10-13T08:08:44;63.47;;;58.78;;
71502;SDS011;59322;51.382;7.372;2023-10-13T08:11:11;87.90;;;81.55;;
71502;SDS011;59322;51.382;7.372;2023-10-13T08:13:46;80.07;;;74.20;;
71502;SDS011;59322;51.382;7.372;2023-10-13T08:16:12;87.20;;;80.07;;
71502;SDS011;59322;51.382;7.372;2023-10-13T08:18:38;88.80;;;82.45;;
71502;SDS011;59322;51.382;7.372;2023-10-13T08:21:04;85.13;;;78.82;;
71502;SDS011;59322;51.382;7.372;2023-10-13T08:23:30;74.40;;;68.47;;
71502;SDS011;59322;51.382;7.372;2023-10-13T08:25:56;104.78;;;97.38;;
71502;SDS011;59322;51.382;7.372;2023-10-13T08:28:22;78.20;;;72.45;;
71502;SDS011;59322;51.382;7.372;2023-10-13T08:30:48;86.55;;;80.15;;
71502;SDS011;59322;51.382;7.372;2023-10-13T08:33:14;101.53;;;94.72;;
71502;SDS011;59322;51.382;7.372;2023-10-13T08:35:40;81.97;;;75.78;;
71502;SDS011;59322;51.382;7.372;2023-10-13T08:38:06;85.13;;;77.90;;
71502;SDS011;59322;51.382;7.372;2023-10-13T08:40:31;80.20;;;74.40;;
71502;SDS011;59322;51.382;7.372;2023-10-13T08:42:57;75.40;;;68.97;;
71502;SDS011;59322;51.382;7.372;2023-10-13T08:45:26;58.50;;;54.03;;
71502;SDS011;59322;51.382;7.372;2023-10-13T08:47:53;63.00;;;57.55;;
71502;SDS011;59322;51.382;7.372;2023-10-13T08:50:20;85.32;;;79.43;;
71502;SDS011;59322;51.382;7.372;2023-10-13T08:52:47;78.90;;;72.68;;
71502;SDS011;59322;51.382;7.372;2023-10-13T08:55:13;94.13;;;87.25;;
71502;SDS011;59322;51.382;7.372;2023-10-13T08:57:39;109.25;;;101.95;;
71502;SDS011;59322;51.382;7.372;2023-10-13T09:00:05;88.95;;;82.68;;
71502;SDS011;59322;51.382;7.372;2023-10-13T09:02:31;86.07;;;80.15;;
71502;SDS011;59322;51.382;7.372;2023-10-13T09:04:57;84.68;;;78.20;;
71502;SDS011;59322;51.382;7.372;2023-10-13T09:07:23;105.45;;;98.18;;
71502;SDS011;59322;51.382;7.372;2023-10-13T09:09:49;69.60;;;64.38;;
71502;SDS011;59322;51.382;7.372;2023-10-13T09:12:16;61.45;;;56.63;;
71502;SDS011;59322;51.382;7.372;2023-10-13T09:14:43;64.78;;;59.85;;
71502;SDS011;59322;51.382;7.372;2023-10-13T09:17:09;53.33;;;48.63;;
71502;SDS011;59322;51.382;7.372;2023-10-13T09:19:45;50.10;;;46.00;;
71502;SDS011;59322;51.382;7.372;2023-10-13T09:22:18;66.15;;;61.28;;
71502;SDS011;59322;51.382;7.372;2023-10-13T09:24:44;68.80;;;63.70;;
71502;SDS011;59322;51.382;7.372;2023-10-13T09:27:10;55.90;;;51.30;;
71502;SDS011;59322;51.382;7.372;2023-10-13T09:29:37;74.25;;;68.53;;
71502;SDS011;59322;51.382;7.372;2023-10-13T09:32:03;87.00;;;80.72;;
71502;SDS011;59322;51.382;7.372;2023-10-13T09:34:29;79.82;;;74.32;;
71502;SDS011;59322;51.382;7.372;2023-10-13T09:36:58;90.93;;;84.78;;
71502;SDS011;59322;51.382;7.372;2023-10-13T09:39:25;51.15;;;47.03;;
71502;SDS011;59322;51.382;7.372;2023-10-13T09:41:51;80.10;;;74.65;;
71502;SDS011;59322;51.382;7.372;2023-10-13T09:44:17;58.78;;;54.67;;
71502;SDS011;59322;51.382;7.372;2023-10-13T09:46:43;59.10;;;54.83;;
71502;SDS011;59322;51.382;7.372;2023-10-13T09:49:12;62.47;;;57.50;;
71502;SDS011;59322;51.382;7.372;2023-10-13T09:51:38;67.32;;;62.22;;
71502;SDS011;59322;51.382;7.372;2023-10-13T09:56:35;92.38;;;85.80;;
71502;SDS011;59322;51.382;7.372;2023-10-13T09:59:06;95.80;;;89.22;;
71502;SDS011;59322;51.382;7.372;2023-10-13T10:01:32;109.18;;;102.20;;
71502;SDS011;59322;51.382;7.372;2023-10-13T10:04:07;85.55;;;79.72;;
71502;SDS011;59322;51.382;7.372;2023-10-13T10:06:34;97.85;;;91.30;;
71502;SDS011;59322;51.382;7.372;2023-10-13T10:09:07;97.22;;;91.07;;
71502;SDS011;59322;51.382;7.372;2023-10-13T10:14:28;88.75;;;82.40;;
71502;SDS011;59322;51.382;7.372;2023-10-13T10:17:05;79.07;;;73.65;;
71502;SDS011;59322;51.382;7.372;2023-10-13T10:19:31;75.03;;;69.65;;
71502;SDS011;59322;51.382;7.372;2023-10-13T10:22:03;99.03;;;92.53;;
71502;SDS011;59322;51.382;7.372;2023-10-13T10:24:29;87.73;;;81.33;;
71502;SDS011;59322;51.382;7.372;2023-10-13T10:26:56;86.47;;;80.68;;
71502;SDS011;59322;51.382;7.372;2023-10-13T10:29:22;86.28;;;80.55;;
71502;SDS011;59322;51.382;7.372;2023-10-13T10:31:48;94.28;;;87.80;;
71502;SDS011;59322;51.382;7.372;2023-10-13T10:34:14;88.25;;;82.38;;
71502;SDS011;59322;51.382;7.372;2023-10-13T10:36:40;104.28;;;97.18;;
71502;SDS011;59322;51.382;7.372;2023-10-13T10:39:07;93.60;;;87.40;;
71502;SDS011;59322;51.382;7.372;2023-10-13T10:41:32;93.38;;;86.97;;
71502;SDS011;59322;51.382;7.372;2023-10-13T10:43:58;81.95;;;76.25;;
71502;SDS011;59322;51.382;7.372;2023-10-13T10:46:27;79.38;;;73.65;;
71502;SDS011;59322;51.382;7.372;2023-10-13T10:48:56;85.82;;;79.95;;
71502;SDS011;59322;51.382;7.372;2023-10-13T10:51:22;76.85;;;71.55;;
71502;SDS011;59322;51.382;7.372;2023-10-13T10:53:48;76.05;;;70.90;;
71502;SDS011;59322;51.382;7.372;2023-10-13T10:56:15;78.25;;;72.68;;
71502;SDS011;59322;51.382;7.372;2023-10-13T10:58:41;80.72;;;75.03;;
71502;SDS011;59322;51.382;7.372;2023-10-13T11:01:07;82.55;;;76.63;;
71502;SDS011;59322;51.382;7.372;2023-10-13T11:03:33;83.43;;;77.32;;
71502;SDS011;59322;51.382;7.372;2023-10-13T11:05:59;78.63;;;73.38;;
71502;SDS011;59322;51.382;7.372;2023-10-13T11:08:25;75.75;;;70.63;;
71502;SDS011;59322;51.382;7.372;2023-10-13T11:10:51;76.50;;;70.97;;
71502;SDS011;59322;51.382;7.372;2023-10-13T11:13:17;74.38;;;68.80;;
71502;SDS011;59322;51.382;7.372;2023-10-13T11:15:43;79.00;;;73.60;;
71502;SDS011;59322;51.382;7.372;2023-10-13T11:18:09;76.20;;;70.57;;
71502;SDS011;59322;51.382;7.372;2023-10-13T11:20:41;82.18;;;76.43;;
71502;SDS011;59322;51.382;7.372;2023-10-13T11:23:13;81.13;;;75.57;;
71502;SDS011;59322;51.382;7.372;2023-10-13T11:25:39;90.07;;;83.60;;
71502;SDS011;59322;51.382;7.372;2023-10-13T11:28:15;79.70;;;74.25;;
71502;SDS011;59322;51.382;7.372;2023-10-13T11:30:41;82.90;;;76.90;;
71502;SDS011;59322;51.382;7.372;2023-10-13T11:33:07;89.03;;;82.70;;
71502;SDS011;59322;51.382;7.372;2023-10-13T11:35:34;83.57;;;77.68;;
71502;SDS011;59322;51.382;7.372;2023-10-13T11:38:00;86.60;;;80.53;;
71502;SDS011;59322;51.382;7.372;2023-10-13T11:40:26;82.72;;;77.18;;
71502;SDS011;59322;51.382;7.372;2023-10-13T11:42:54;83.88;;;78.30;;
71502;SDS011;59322;51.382;7.372;2023-10-13T11:45:20;85.93;;;79.70;;
71502;SDS011;59322;51.382;7.372;2023-10-13T11:47:46;83.97;;;78.28;;
71502;SDS011;59322;51.382;7.372;2023-10-13T11:50:11;87.13;;;81.05;;
71502;SDS011;59322;51.382;7.372;2023-10-13T11:52:37;85.45;;;79.82;;
71502;SDS011;59322;51.382;7.372;2023-10-13T11:55:03;88.97;;;83.15;;
71502;SDS011;59322;51.382;7.372;2023-10-13T11:57:29;85.25;;;79.63;;
71502;SDS011;59322;51.382;7.372;2023-10-13T11:59:55;95.10;;;88.38;;
71502;SDS011;59322;51.382;7.372;2023-10-13T12:02:21;95.63;;;89.18;;
71502;SDS011;59322;51.382;7.372;2023-10-13T12:04:47;86.80;;;80.53;;
71502;SDS011;59322;51.382;7.372;2023-10-13T12:07:13;102.85;;;96.35;;
71502;SDS011;59322;51.382;7.372;2023-10-13T12:09:39;91.85;;;85.88;;
71502;SDS011;59322;51.382;7.372;2023-10-13T12:12:05;86.63;;;80.75;;
71502;SDS011;59322;51.382;7.372;2023-10-13T12:14:31;87.15;;;81.55;;
71502;SDS011;59322;51.382;7.372;2023-10-13T12:16:56;90.07;;;84.03;;
71502;SDS011;59322;51.382;7.372;2023-10-13T12:19:23;97.30;;;90.28;;
71502;SDS011;59322;51.382;7.372;2023-10-13T12:21:49;92.57;;;86.28;;
71502;SDS011;59322;51.382;7.372;2023-10-13T12:24:15;96.40;;;89.93;;
71502;SDS011;59322;51.382;7.372;2023-10-13T12:26:41;92.72;;;86.82;;
71502;SDS011;59322;51.382;7.372;2023-10-13T12:29:07;92.90;;;86.88;;
71502;SDS011;59322;51.382;7.372;2023-10-13T12:31:33;121.57;;;113.70;;
71502;SDS011;59322;51.382;7.372;2023-10-13T12:33:59;89.70;;;83.72;;
71502;SDS011;59322;51.382;7.372;2023-10-13T12:36:25;109.60;;;102.78;;
71502;SDS011;59322;51.382;7.372;2023-10-13T12:38:50;95.10;;;88.93;;
71502;SDS011;59322;51.382;7.372;2023-10-13T12:41:20;112.93;;;105.90;;
71502;SDS011;59322;51.382;7.372;2023-10-13T12:43:46;109.78;;;102.13;;
71502;SDS011;59322;51.382;7.372;2023-10-13T12:46:12;101.80;;;95.18;;
71502;SDS011;59322;51.382;7.372;2023-10-13T12:48:37;90.55;;;84.22;;
71502;SDS011;59322;51.382;7.372;2023-10-13T12:51:03;89.97;;;84.25;;
71502;SDS011;59322;51.382;7.372;2023-10-13T12:53:29;97.93;;;91.47;;
71502;SDS011;59322;51.382;7.372;2023-10-13T12:55:55;104.10;;;97.22;;
71502;SDS011;59322;51.382;7.372;2023-10-13T12:58:21;91.10;;;84.95;;
71502;SDS011;59322;51.382;7.372;2023-10-13T13:00:47;90.65;;;84.85;;
71502;SDS011;59322;51.382;7.372;2023-10-13T13:03:13;114.68;;;106.78;;
71502;SDS011;59322;51.382;7.372;2023-10-13T13:05:39;95.88;;;89.45;;
71502;SDS011;59322;51.382;7.372;2023-10-13T13:08:05;110.78;;;103.55;;
71502;SDS011;59322;51.382;7.372;2023-10-13T13:10:31;145.18;;;136.35;;
71502;SDS011;59322;51.382;7.372;2023-10-13T13:12:56;171.32;;;160.90;;
71502;SDS011;59322;51.382;7.372;2023-10-13T13:15:23;142.30;;;133.55;;
71502;SDS011;59322;51.382;7.372;2023-10-13T13:17:49;138.27;;;129.45;;
71502;SDS011;59322;51.382;7.372;2023-10-13T13:20:14;144.77;;;136.10;;
71502;SDS011;59322;51.382;7.372;2023-10-13T13:22:40;124.95;;;116.72;;
71502;SDS011;59322;51.382;7.372;2023-10-13T13:25:06;140.23;;;131.45;;
71502;SDS011;59322;51.382;7.372;2023-10-13T13:27:32;193.07;;;177.75;;
71502;SDS011;59322;51.382;7.372;2023-10-13T13:29:58;139.70;;;130.63;;
71502;SDS011;59322;51.382;7.372;2023-10-13T13:32:24;130.05;;;121.53;;
71502;SDS011;59322;51.382;7.372;2023-10-13T13:34:50;155.32;;;146.00;;
71502;SDS011;59322;51.382;7.372;2023-10-13T13:37:16;149.20;;;140.07;;
71502;SDS011;59322;51.382;7.372;2023-10-13T13:39:42;139.43;;;130.07;;
71502;SDS011;59322;51.382;7.372;2023-10-13T13:42:09;143.30;;;134.02;;
71502;SDS011;59322;51.382;7.372;2023-10-13T13:44:34;151.10;;;141.63;;
71502;SDS011;59322;51.382;7.372;2023-10-13T13:47:01;157.73;;;147.55;;
71502;SDS011;59322;51.382;7.372;2023-10-13T13:49:26;159.38;;;149.63;;
71502;SDS011;59322;51.382;7.372;2023-10-13T13:51:52;141.23;;;132.00;;
71502;SDS011;59322;51.382;7.372;2023-10-13T13:54:18;159.93;;;150.02;;
71502;SDS011;59322;51.382;7.372;2023-10-13T13:56:44;152.68;;;143.00;;
71502;SDS011;59322;51.382;7.372;2023-10-13T13:59:10;158.95;;;148.77;;
71502;SDS011;59322;51.382;7.372;2023-10-13T14:01:36;160.20;;;150.13;;
71502;SDS011;59322;51.382;7.372;2023-10-13T14:04:02;160.50;;;150.98;;
71502;SDS011;59322;51.382;7.372;2023-10-13T14:06:28;136.45;;;127.28;;
71502;SDS011;59322;51.382;7.372;2023-10-13T14:08:58;135.32;;;126.78;;
71502;SDS011;59322;51.382;7.372;2023-10-13T14:11:24;148.63;;;139.20;;
71502;SDS011;59322;51.382;7.372;2023-10-13T14:13:50;175.18;;;164.55;;